Main page
METAR-TAF:

METAR-TAF

Airports :

Nuremberg Airport

Nuremberg, Germany

latitude: 49-30N, longitude: 011-03E, elevation: 318 m

Current weather observation

The report was made 16 minutes ago, at 00:20 UTC
Wind 14 kt from the Southwest
Temperature 7°C
Humidity 76%
Pressure 1021 hPa
Visibility 10 km or more
no clouds below 1500 m and no cumulonimbus

METAR: EDDN 180020Z 23014KT CAVOK 07/03 Q1021

Time: 01:36 (00:36 UTC)

Forecast

The report was made 1 hour and 36 minutes ago, at 23:00 UTC
Forecast valid from 18 at 00 UTC to 18 at 24 UTC
Wind 10 kt from the Southwest
Visibility 10 km or more
Broken clouds at a height of 4500 ft
Becoming
from 18 at 06 UTC to 18 at 08 UTC
Wind 15 kt from the West/Southwest
Temporary
from 18 at 08 UTC to 18 at 16 UTC
Wind 15 kt from the West/Southwest with gusts up to 30 kt
Becoming
from 18 at 16 UTC to 18 at 18 UTC
Wind 7 kt from the Southwest

TAF: EDDN 172300Z 1800/1824 22010KT 9999 BKN045 BECMG 1806/1808 25015KT TEMPO 1808/1816 25015G30KT BECMG 1816/1818 23007KT

Weather observations and forecasts of more than 4000 airports (METAR and TAF reports).

The available stations are represented by yellow and red dots on the map.

Hover mouse over dot to see the name of the station.

Then click to see weather observations and forecasts.

To change the map : click on the green buttons with a black cross to zoom in, on the green button with a dash to zoom out, or on the green arrows for adjacent maps.


METAR-TAF: